createdAt,value
2023-03-10T00:00:07.369Z,0.00
2023-03-10T00:01:07.357Z,0.00
2023-03-10T00:02:07.355Z,0.00
2023-03-10T00:03:07.367Z,0.00
2023-03-10T00:04:07.397Z,0.00
2023-03-10T00:05:07.314Z,0.00
2023-03-10T00:06:07.409Z,0.00
2023-03-10T00:07:07.292Z,0.00
2023-03-10T00:08:07.318Z,0.00
2023-03-10T00:09:07.272Z,0.00
2023-03-10T00:10:07.278Z,0.00
2023-03-10T00:11:07.254Z,0.00
2023-03-10T00:12:07.257Z,0.00
2023-03-10T00:13:07.230Z,0.00
2023-03-10T00:14:07.219Z,0.00
2023-03-10T00:15:07.214Z,0.00
2023-03-10T00:16:07.257Z,0.00
2023-03-10T00:17:07.186Z,0.00
2023-03-10T00:18:07.183Z,0.00
2023-03-10T00:19:07.164Z,0.00
2023-03-10T00:20:07.159Z,0.00
2023-03-10T00:21:07.144Z,0.00
2023-03-10T00:22:07.133Z,0.00
2023-03-10T00:23:07.118Z,0.00
2023-03-10T00:24:07.139Z,0.00
2023-03-10T00:25:07.097Z,0.00
2023-03-10T00:26:07.088Z,0.00
2023-03-10T00:27:07.078Z,0.00
2023-03-10T00:28:07.073Z,0.00
2023-03-10T00:29:07.053Z,0.00
2023-03-10T00:30:07.047Z,0.00
2023-03-10T00:31:07.102Z,0.00
2023-03-10T00:32:07.027Z,0.00
2023-03-10T00:33:07.013Z,0.00
2023-03-10T00:34:07.017Z,0.00
2023-03-10T00:35:06.989Z,0.00
2023-03-10T00:36:07.067Z,0.00
2023-03-10T00:37:06.971Z,0.00
2023-03-10T00:38:06.963Z,0.00
2023-03-10T00:39:06.949Z,0.00
2023-03-10T00:40:06.964Z,0.00
2023-03-10T00:41:06.928Z,0.00
2023-03-10T00:42:06.924Z,0.00
2023-03-10T00:43:06.906Z,0.00
2023-03-10T00:44:06.905Z,0.00
2023-03-10T00:45:06.887Z,0.00
2023-03-10T00:46:07.034Z,0.00
2023-03-10T00:47:06.871Z,0.00
2023-03-10T00:48:06.855Z,0.00
2023-03-10T00:49:06.845Z,0.00
2023-03-10T00:50:06.834Z,0.00
2023-03-10T00:51:06.832Z,0.00
2023-03-10T00:52:06.813Z,0.00
2023-03-10T00:53:06.808Z,0.00
2023-03-10T00:54:06.794Z,0.00
2023-03-10T00:55:06.775Z,0.00
2023-03-10T00:56:06.790Z,0.00
2023-03-10T00:57:06.757Z,0.00
2023-03-10T00:58:06.747Z,0.00
2023-03-10T00:59:06.734Z,0.00
2023-03-10T01:00:06.730Z,0.00
2023-03-10T01:01:06.713Z,0.00
2023-03-10T01:02:06.759Z,0.00
2023-03-10T01:03:06.690Z,0.00
2023-03-10T01:04:06.781Z,0.00
2023-03-10T01:05:06.669Z,0.00
2023-03-10T01:06:06.660Z,0.00
2023-03-10T01:07:06.644Z,0.00
2023-03-10T01:08:06.639Z,0.00
2023-03-10T01:09:06.630Z,0.00
2023-03-10T01:10:06.613Z,0.00
2023-03-10T01:11:06.602Z,0.00
2023-03-10T01:12:06.616Z,0.00
2023-03-10T01:13:06.579Z,0.00
2023-03-10T01:14:06.573Z,0.00
2023-03-10T01:15:06.560Z,0.00
2023-03-10T01:16:06.601Z,0.00
2023-03-10T01:17:06.561Z,0.00
2023-03-10T01:18:06.527Z,0.00
2023-03-10T01:19:06.530Z,0.00
2023-03-10T01:20:06.543Z,0.00
2023-03-10T01:21:06.494Z,0.00
2023-03-10T01:22:06.482Z,0.00
2023-03-10T01:23:06.473Z,0.00
2023-03-10T01:24:06.462Z,0.00
2023-03-10T01:25:06.448Z,0.00
2023-03-10T01:26:06.448Z,0.00
2023-03-10T01:27:06.427Z,0.00
2023-03-10T01:28:06.444Z,0.00
2023-03-10T01:29:06.409Z,0.00
2023-03-10T01:30:06.414Z,0.00
2023-03-10T01:31:06.420Z,0.00
2023-03-10T01:32:06.384Z,0.00
2023-03-10T01:33:06.363Z,0.00
2023-03-10T01:34:06.353Z,0.00
2023-03-10T01:35:06.343Z,0.00
2023-03-10T01:36:06.435Z,0.00
2023-03-10T01:37:06.321Z,0.00
2023-03-10T01:38:06.310Z,0.00
2023-03-10T01:39:06.298Z,0.00
2023-03-10T01:40:06.296Z,0.00
2023-03-10T01:41:06.278Z,0.00
2023-03-10T01:42:06.266Z,0.00
2023-03-10T01:43:06.258Z,0.00
2023-03-10T01:44:06.266Z,0.00
2023-03-10T01:45:06.230Z,0.00
2023-03-10T01:46:06.290Z,0.00
2023-03-10T01:47:06.207Z,0.00
2023-03-10T01:48:06.205Z,0.00
2023-03-10T01:49:06.187Z,0.00
2023-03-10T01:50:06.177Z,0.00
2023-03-10T01:51:06.166Z,0.00
2023-03-10T01:52:06.160Z,0.00
2023-03-10T01:53:06.147Z,0.00
2023-03-10T01:54:06.146Z,0.00
2023-03-10T01:55:06.140Z,0.00
2023-03-10T01:56:06.113Z,0.00
2023-03-10T01:57:06.119Z,0.00
2023-03-10T01:58:06.090Z,0.00
2023-03-10T01:59:06.075Z,0.00
2023-03-10T02:00:06.091Z,0.00
2023-03-10T02:01:06.078Z,0.00
2023-03-10T02:02:06.099Z,0.00
2023-03-10T02:03:06.034Z,0.00
2023-03-10T02:04:06.023Z,0.00
2023-03-10T02:05:06.014Z,0.00
2023-03-10T02:06:06.012Z,0.00
2023-03-10T02:07:05.994Z,0.00
2023-03-10T02:08:05.982Z,0.00
2023-03-10T02:09:05.976Z,0.00
2023-03-10T02:10:05.956Z,0.00
2023-03-10T02:11:05.951Z,0.00
2023-03-10T02:12:05.937Z,0.00
2023-03-10T02:13:05.929Z,0.00
2023-03-10T02:14:05.919Z,0.00
2023-03-10T02:15:05.913Z,0.00
2023-03-10T02:16:05.993Z,0.00
2023-03-10T02:17:05.885Z,0.00
2023-03-10T02:18:05.928Z,0.00
2023-03-10T02:19:05.864Z,0.00
2023-03-10T02:20:05.853Z,0.00
2023-03-10T02:21:05.841Z,0.00
2023-03-10T02:22:05.837Z,0.00
2023-03-10T02:23:05.822Z,0.00
2023-03-10T02:24:05.808Z,0.00
2023-03-10T02:25:05.801Z,0.00
2023-03-10T02:26:05.789Z,0.00
2023-03-10T02:27:05.794Z,0.00
2023-03-10T02:28:05.768Z,0.00
2023-03-10T02:29:05.758Z,0.00
2023-03-10T02:30:05.745Z,0.00
2023-03-10T02:31:05.742Z,0.00
2023-03-10T02:32:05.843Z,0.00
2023-03-10T02:33:05.721Z,0.00
2023-03-10T02:34:05.701Z,0.00
2023-03-10T02:35:05.696Z,0.00
2023-03-10T02:36:05.739Z,0.00
2023-03-10T02:37:05.671Z,0.00
2023-03-10T02:38:05.658Z,0.00
2023-03-10T02:39:05.651Z,0.00
2023-03-10T02:40:05.642Z,0.00
2023-03-10T02:41:05.630Z,0.00
2023-03-10T02:42:05.614Z,0.00
2023-03-10T02:43:05.604Z,0.00
2023-03-10T02:44:05.593Z,0.00
2023-03-10T02:45:05.583Z,0.00
2023-03-10T02:46:05.663Z,0.00
2023-03-10T02:47:05.563Z,0.00
2023-03-10T02:48:05.570Z,0.00
2023-03-10T02:49:05.546Z,0.00
2023-03-10T02:50:05.525Z,0.00
2023-03-10T02:51:05.521Z,0.00
2023-03-10T02:52:05.504Z,0.00
2023-03-10T02:53:05.498Z,0.00
2023-03-10T02:54:05.483Z,0.00
2023-03-10T02:55:05.473Z,0.00
2023-03-10T02:56:05.472Z,0.00
2023-03-10T02:57:05.451Z,0.00
2023-03-10T02:58:05.437Z,0.00
2023-03-10T02:59:05.433Z,0.00
2023-03-10T03:00:05.414Z,0.00
2023-03-10T03:01:05.498Z,0.00
2023-03-10T03:02:05.396Z,0.00
2023-03-10T03:03:05.390Z,0.00
2023-03-10T03:04:05.603Z,0.00
2023-03-10T03:05:05.364Z,0.00
2023-03-10T03:06:05.353Z,0.00
2023-03-10T03:07:05.341Z,0.00
2023-03-10T03:08:05.332Z,0.00
2023-03-10T03:09:05.318Z,0.00
2023-03-10T03:10:05.406Z,0.00
2023-03-10T03:11:05.317Z,0.00
2023-03-10T03:12:05.318Z,0.00
2023-03-10T03:13:05.276Z,0.00
2023-03-10T03:14:05.267Z,0.00
2023-03-10T03:15:05.255Z,0.00
2023-03-10T03:16:05.240Z,0.00
2023-03-10T03:17:05.273Z,0.00
2023-03-10T03:18:05.219Z,0.00
2023-03-10T03:19:05.220Z,0.00
2023-03-10T03:20:05.294Z,0.00
2023-03-10T03:21:05.192Z,0.00
2023-03-10T03:22:05.228Z,0.00
2023-03-10T03:23:05.166Z,0.00
2023-03-10T03:24:05.154Z,0.00
2023-03-10T03:25:05.145Z,0.00
2023-03-10T03:26:05.135Z,0.00
2023-03-10T03:27:05.122Z,0.00
2023-03-10T03:28:05.112Z,0.00
2023-03-10T03:29:05.107Z,0.00
2023-03-10T03:30:05.091Z,0.00
2023-03-10T03:31:05.086Z,0.00
2023-03-10T03:32:05.184Z,0.00
2023-03-10T03:33:05.056Z,0.00
2023-03-10T03:34:05.048Z,0.00
2023-03-10T03:35:05.036Z,0.00
2023-03-10T03:36:05.089Z,0.00
2023-03-10T03:37:05.016Z,0.00
2023-03-10T03:38:05.017Z,0.00
2023-03-10T03:39:04.991Z,0.00
2023-03-10T03:40:04.981Z,0.00
2023-03-10T03:41:04.969Z,0.00
2023-03-10T03:42:04.983Z,0.00
2023-03-10T03:43:05.004Z,0.00
2023-03-10T03:44:05.054Z,0.00
2023-03-10T03:45:05.042Z,0.00
2023-03-10T03:46:05.129Z,0.00
2023-03-10T03:47:05.042Z,0.00
2023-03-10T03:48:05.083Z,0.00
2023-03-10T03:49:04.931Z,0.00
2023-03-10T03:50:04.873Z,0.00
2023-03-10T03:51:04.859Z,0.00
2023-03-10T03:52:04.874Z,0.00
2023-03-10T03:53:04.841Z,0.00
2023-03-10T03:54:04.831Z,0.00
2023-03-10T03:55:04.832Z,0.00
2023-03-10T03:56:04.808Z,0.00
2023-03-10T03:57:04.803Z,0.00
2023-03-10T03:58:04.796Z,0.00
2023-03-10T03:59:04.779Z,0.00
2023-03-10T04:00:04.809Z,0.00
2023-03-10T04:01:04.758Z,0.00
2023-03-10T04:02:04.813Z,0.00
2023-03-10T04:03:04.736Z,0.00
2023-03-10T04:04:04.729Z,0.00
2023-03-10T04:05:04.724Z,0.00
2023-03-10T04:06:04.697Z,0.00
2023-03-10T04:07:04.687Z,0.00
2023-03-10T04:08:04.709Z,0.00
2023-03-10T04:09:04.675Z,0.00
2023-03-10T04:10:04.662Z,0.00
2023-03-10T04:11:04.647Z,0.00
2023-03-10T04:12:04.633Z,0.00
2023-03-10T04:13:04.625Z,0.00
2023-03-10T04:14:04.619Z,0.00
2023-03-10T04:15:04.605Z,0.00
2023-03-10T04:16:04.601Z,0.00
2023-03-10T04:17:04.595Z,0.00
2023-03-10T04:18:04.575Z,0.00
2023-03-10T04:19:04.560Z,0.00
2023-03-10T04:20:07.470Z,0.00
2023-03-10T04:21:04.539Z,0.00
2023-03-10T04:22:04.524Z,0.00
2023-03-10T04:23:04.517Z,0.00
2023-03-10T04:24:04.534Z,0.00
2023-03-10T04:25:04.495Z,0.00
2023-03-10T04:26:04.483Z,0.00
2023-03-10T04:27:04.474Z,0.00
2023-03-10T04:28:04.462Z,0.00
2023-03-10T04:29:04.460Z,0.00
2023-03-10T04:30:04.459Z,0.00
2023-03-10T04:31:04.549Z,0.00
2023-03-10T04:32:05.859Z,0.00
2023-03-10T04:33:04.410Z,0.00
2023-03-10T04:34:04.407Z,0.00
2023-03-10T04:35:04.388Z,0.00
2023-03-10T04:36:04.490Z,0.00
2023-03-10T04:37:04.370Z,0.00
2023-03-10T04:38:04.375Z,0.00
2023-03-10T04:39:04.346Z,0.00
2023-03-10T04:40:04.360Z,0.00
2023-03-10T04:41:04.322Z,0.00
2023-03-10T04:42:04.321Z,0.00
2023-03-10T04:43:04.308Z,0.00
2023-03-10T04:44:04.291Z,0.00
2023-03-10T04:45:04.280Z,0.00
2023-03-10T04:46:04.315Z,0.00
2023-03-10T04:47:04.258Z,0.00
2023-03-10T04:48:04.245Z,0.00
2023-03-10T04:49:04.236Z,0.00
2023-03-10T04:50:04.223Z,0.00
2023-03-10T04:51:04.214Z,0.00
2023-03-10T04:52:04.205Z,0.00
2023-03-10T04:53:04.217Z,0.00
2023-03-10T04:54:04.190Z,0.00
2023-03-10T04:55:04.171Z,0.00
2023-03-10T04:56:04.184Z,0.00
2023-03-10T04:57:04.150Z,0.00
2023-03-10T04:58:04.138Z,0.00
2023-03-10T04:59:04.139Z,0.00
2023-03-10T05:00:04.579Z,0.00
2023-03-10T05:01:04.197Z,0.00
2023-03-10T05:02:04.145Z,0.00
2023-03-10T05:03:04.085Z,0.00
2023-03-10T05:04:04.103Z,0.00
2023-03-10T05:05:04.061Z,0.00
2023-03-10T05:06:04.046Z,0.00
2023-03-10T05:07:04.042Z,0.00
2023-03-10T05:08:04.031Z,0.00
2023-03-10T05:09:04.021Z,0.00
2023-03-10T05:10:04.003Z,0.00
2023-03-10T05:11:03.997Z,0.00
2023-03-10T05:12:04.024Z,0.00
2023-03-10T05:13:03.974Z,0.00
2023-03-10T05:14:03.960Z,0.00
2023-03-10T05:15:03.953Z,0.00
2023-03-10T05:16:03.995Z,0.00
2023-03-10T05:17:03.943Z,0.00
2023-03-10T05:18:03.917Z,0.00
2023-03-10T05:19:03.932Z,0.00
2023-03-10T05:20:03.895Z,0.00
2023-03-10T05:21:03.885Z,0.00
2023-03-10T05:22:03.879Z,0.00
2023-03-10T05:23:03.862Z,0.00
2023-03-10T05:24:03.850Z,0.00
2023-03-10T05:25:03.856Z,0.00
2023-03-10T05:26:03.830Z,0.00
2023-03-10T05:27:03.818Z,0.00
2023-03-10T05:28:03.832Z,0.00
2023-03-10T05:29:03.800Z,0.00
2023-03-10T05:30:03.789Z,0.00
2023-03-10T05:31:03.842Z,0.00
2023-03-10T05:32:03.760Z,0.00
2023-03-10T05:33:03.754Z,0.00
2023-03-10T05:34:03.739Z,4.00
2023-03-10T05:35:03.732Z,4.00
2023-03-10T05:36:03.779Z,4.00
2023-03-10T05:37:03.714Z,0.00
2023-03-10T05:38:03.697Z,4.00
2023-03-10T05:39:03.687Z,4.00
2023-03-10T05:40:03.674Z,8.00
2023-03-10T05:41:03.668Z,4.00
2023-03-10T05:42:03.667Z,8.00
2023-03-10T05:43:03.643Z,4.00
2023-03-10T05:44:03.663Z,8.00
2023-03-10T05:45:03.623Z,8.00
2023-03-10T05:46:03.614Z,12.00
2023-03-10T05:47:03.724Z,8.00
2023-03-10T05:48:03.588Z,12.00
2023-03-10T05:49:03.582Z,12.00
2023-03-10T05:50:03.567Z,16.00
2023-03-10T05:51:03.573Z,16.00
2023-03-10T05:52:03.557Z,20.00
2023-03-10T05:53:03.551Z,24.00
2023-03-10T05:54:03.524Z,24.00
2023-03-10T05:55:03.514Z,24.00
2023-03-10T05:56:03.502Z,24.00
2023-03-10T05:57:03.494Z,28.00
2023-03-10T05:58:03.479Z,32.00
2023-03-10T05:59:03.469Z,32.00
2023-03-10T06:00:03.487Z,40.00
2023-03-10T06:01:03.471Z,44.00
2023-03-10T06:02:03.443Z,44.00
2023-03-10T06:03:03.451Z,52.00
2023-03-10T06:04:03.460Z,56.00
2023-03-10T06:05:03.406Z,56.00
2023-03-10T06:06:03.396Z,64.00
2023-03-10T06:07:03.388Z,68.00
2023-03-10T06:08:03.385Z,72.00
2023-03-10T06:09:03.380Z,80.00
2023-03-10T06:10:03.348Z,80.00
2023-03-10T06:11:03.500Z,88.00
2023-03-10T06:12:03.328Z,92.00
2023-03-10T06:13:03.322Z,92.00
2023-03-10T06:14:03.343Z,100.00
2023-03-10T06:15:03.312Z,104.00
2023-03-10T06:16:03.380Z,108.00
2023-03-10T06:17:03.278Z,120.00
2023-03-10T06:18:03.261Z,128.00
2023-03-10T06:19:03.253Z,136.00
2023-03-10T06:20:03.240Z,148.00
2023-03-10T06:21:03.520Z,156.00
2023-03-10T06:22:03.222Z,176.00
2023-03-10T06:23:03.210Z,188.00
2023-03-10T06:24:03.202Z,196.00
2023-03-10T06:25:03.184Z,204.00
2023-03-10T06:26:03.176Z,216.00
2023-03-10T06:27:03.176Z,220.00
2023-03-10T06:28:03.164Z,236.00
2023-03-10T06:29:03.142Z,248.00
2023-03-10T06:30:03.134Z,260.00
2023-03-10T06:31:03.126Z,268.00
2023-03-10T06:32:03.255Z,272.00
2023-03-10T06:33:03.099Z,288.00
2023-03-10T06:34:04.481Z,296.00
2023-03-10T06:35:03.081Z,300.00
2023-03-10T06:36:03.104Z,308.00
2023-03-10T06:37:03.059Z,320.00
2023-03-10T06:38:03.050Z,340.00
2023-03-10T06:39:03.036Z,336.00
2023-03-10T06:40:03.038Z,352.00
2023-03-10T06:41:03.023Z,348.00
2023-03-10T06:42:03.009Z,344.00
2023-03-10T06:43:02.995Z,364.00
2023-03-10T06:44:02.995Z,368.00
2023-03-10T06:45:02.975Z,368.00
2023-03-10T06:46:03.091Z,364.00
2023-03-10T06:47:02.951Z,380.00
2023-03-10T06:48:02.963Z,388.00
2023-03-10T06:49:02.929Z,380.00
2023-03-10T06:50:02.920Z,388.00
2023-03-10T06:51:02.909Z,396.00
2023-03-10T06:52:02.902Z,380.00
2023-03-10T06:53:02.885Z,384.00
2023-03-10T06:54:02.877Z,396.00
2023-03-10T06:55:02.866Z,388.00
2023-03-10T06:56:02.857Z,392.00
2023-03-10T06:57:02.855Z,396.00
2023-03-10T06:58:02.835Z,404.00
2023-03-10T06:59:02.821Z,392.00
2023-03-10T07:00:02.814Z,380.00
2023-03-10T07:01:02.850Z,400.00
2023-03-10T07:02:02.792Z,396.00
2023-03-10T07:03:02.782Z,404.00
2023-03-10T07:04:02.919Z,396.00
2023-03-10T07:05:02.904Z,392.00
2023-03-10T07:06:02.761Z,364.00
2023-03-10T07:07:02.736Z,396.00
2023-03-10T07:08:02.728Z,392.00
2023-03-10T07:09:02.751Z,380.00
2023-03-10T07:10:02.703Z,388.00
2023-03-10T07:11:02.688Z,404.00
2023-03-10T07:12:02.687Z,384.00
2023-03-10T07:13:02.666Z,388.00
2023-03-10T07:14:02.664Z,372.00
2023-03-10T07:15:02.645Z,388.00
2023-03-10T07:16:02.635Z,384.00
2023-03-10T07:17:02.685Z,380.00
2023-03-10T07:18:02.614Z,392.00
2023-03-10T07:19:02.613Z,388.00
2023-03-10T07:20:02.608Z,388.00
2023-03-10T07:21:02.576Z,384.00
2023-03-10T07:22:02.572Z,392.00
2023-03-10T07:23:02.557Z,392.00
2023-03-10T07:24:02.543Z,376.00
2023-03-10T07:25:02.551Z,380.00
2023-03-10T07:26:02.529Z,376.00
2023-03-10T07:27:02.518Z,392.00
2023-03-10T07:28:02.524Z,388.00
2023-03-10T07:29:02.488Z,380.00
2023-03-10T07:30:02.476Z,392.00
2023-03-10T07:31:02.568Z,396.00
2023-03-10T07:32:02.487Z,388.00
2023-03-10T07:33:02.450Z,392.00
2023-03-10T07:34:02.437Z,388.00
2023-03-10T07:35:02.441Z,404.00
2023-03-10T07:36:02.547Z,400.00
2023-03-10T07:37:02.403Z,400.00
2023-03-10T07:38:02.391Z,376.00
2023-03-10T07:39:02.382Z,392.00
2023-03-10T07:40:02.370Z,400.00
2023-03-10T07:41:02.355Z,408.00
2023-03-10T07:42:02.364Z,404.00
2023-03-10T07:43:02.346Z,400.00
2023-03-10T07:44:02.330Z,400.00
2023-03-10T07:45:02.314Z,404.00
2023-03-10T07:46:02.325Z,416.00
2023-03-10T07:47:02.290Z,412.00
2023-03-10T07:48:02.289Z,428.00
2023-03-10T07:49:02.271Z,428.00
2023-03-10T07:50:02.261Z,412.00
2023-03-10T07:51:02.250Z,420.00
2023-03-10T07:52:02.415Z,432.00
2023-03-10T07:53:02.226Z,428.00
2023-03-10T07:54:02.222Z,424.00
2023-03-10T07:55:02.203Z,424.00
2023-03-10T07:56:02.195Z,420.00
2023-03-10T07:57:02.182Z,424.00
2023-03-10T07:58:02.183Z,428.00
2023-03-10T07:59:02.161Z,436.00
2023-03-10T08:00:02.172Z,428.00
2023-03-10T08:01:02.148Z,432.00
2023-03-10T08:02:02.138Z,436.00
2023-03-10T08:03:02.209Z,436.00
2023-03-10T08:04:02.267Z,452.00
2023-03-10T08:05:02.198Z,444.00
2023-03-10T08:06:02.086Z,452.00
2023-03-10T08:07:02.087Z,448.00
2023-03-10T08:08:02.094Z,468.00
2023-03-10T08:09:02.070Z,468.00
2023-03-10T08:10:02.044Z,480.00
2023-03-10T08:11:02.040Z,484.00
2023-03-10T08:12:02.027Z,492.00
2023-03-10T08:13:02.008Z,488.00
2023-03-10T08:14:02.167Z,504.00
2023-03-10T08:15:01.994Z,508.00
2023-03-10T08:16:02.106Z,508.00
2023-03-10T08:17:01.976Z,512.00
2023-03-10T08:18:01.976Z,512.00
2023-03-10T08:19:01.947Z,524.00
2023-03-10T08:20:01.978Z,520.00
2023-03-10T08:21:01.935Z,524.00
2023-03-10T08:22:01.914Z,528.00
2023-03-10T08:23:01.899Z,544.00
2023-03-10T08:24:01.969Z,548.00
2023-03-10T08:25:01.877Z,548.00
2023-03-10T08:26:01.875Z,560.00
2023-03-10T08:27:01.860Z,556.00
2023-03-10T08:28:01.847Z,548.00
2023-03-10T08:29:01.832Z,564.00
2023-03-10T08:30:01.831Z,568.00
2023-03-10T08:31:05.251Z,560.00
2023-03-10T08:32:02.010Z,568.00
2023-03-10T08:33:01.897Z,588.00
2023-03-10T08:34:01.783Z,576.00
2023-03-10T08:35:01.771Z,580.00
2023-03-10T08:36:01.790Z,596.00
2023-03-10T08:37:01.757Z,588.00
2023-03-10T08:38:01.740Z,592.00
2023-03-10T08:39:01.724Z,608.00
2023-03-10T08:40:01.747Z,616.00
2023-03-10T08:41:01.702Z,608.00
2023-03-10T08:42:01.727Z,616.00
2023-03-10T08:43:01.689Z,628.00
2023-03-10T08:44:01.676Z,632.00
2023-03-10T08:45:01.666Z,640.00
2023-03-10T08:46:01.675Z,640.00
2023-03-10T08:47:01.720Z,652.00
2023-03-10T08:48:01.627Z,652.00
2023-03-10T08:49:01.661Z,668.00
2023-03-10T08:50:01.626Z,680.00
2023-03-10T08:51:01.596Z,688.00
2023-03-10T08:52:01.587Z,688.00
2023-03-10T08:53:01.581Z,700.00
2023-03-10T08:54:01.570Z,704.00
2023-03-10T08:55:01.556Z,724.00
2023-03-10T08:56:01.580Z,716.00
2023-03-10T08:57:01.531Z,736.00
2023-03-10T08:58:01.523Z,748.00
2023-03-10T08:59:01.526Z,744.00
2023-03-10T09:00:01.503Z,752.00
2023-03-10T09:01:01.493Z,784.00
2023-03-10T09:02:01.581Z,792.00
2023-03-10T09:03:01.525Z,800.00
2023-03-10T09:04:01.477Z,820.00
2023-03-10T09:05:01.609Z,832.00
2023-03-10T09:06:01.438Z,852.00
2023-03-10T09:07:01.422Z,876.00
2023-03-10T09:08:01.434Z,896.00
2023-03-10T09:09:01.406Z,908.00
2023-03-10T09:10:01.413Z,964.00
2023-03-10T09:11:01.382Z,1000.00
2023-03-10T09:12:01.407Z,1036.00
2023-03-10T09:13:13.360Z,1092.00
2023-03-10T09:14:01.428Z,1140.00
2023-03-10T09:15:01.337Z,1192.00
2023-03-10T09:16:01.385Z,1228.00
2023-03-10T09:17:01.381Z,1304.00
2023-03-10T09:18:01.306Z,1364.00
2023-03-10T09:19:01.293Z,1424.00
2023-03-10T09:20:01.295Z,1500.00
2023-03-10T09:21:01.276Z,1520.00
2023-03-10T09:22:01.266Z,1528.00
2023-03-10T09:23:01.252Z,1600.00
2023-03-10T09:24:01.254Z,1612.00
2023-03-10T09:25:01.230Z,1564.00
2023-03-10T09:26:01.215Z,1564.00
2023-03-10T09:27:01.206Z,1572.00
2023-03-10T09:28:01.216Z,1572.00
2023-03-10T09:29:01.186Z,1584.00
2023-03-10T09:30:01.675Z,1652.00
2023-03-10T09:31:01.158Z,1668.00
2023-03-10T09:32:01.260Z,1684.00
2023-03-10T09:33:01.238Z,1776.00
2023-03-10T09:34:01.139Z,1804.00
2023-03-10T09:35:01.116Z,1848.00
2023-03-10T09:36:08.245Z,1940.00
2023-03-10T09:37:02.129Z,2016.00
2023-03-10T09:38:01.093Z,1932.00
2023-03-10T09:39:01.145Z,2076.00
2023-03-10T09:40:01.073Z,2124.00
2023-03-10T09:41:01.060Z,2160.00
2023-03-10T09:42:01.051Z,2248.00
2023-03-10T09:43:01.031Z,2308.00
2023-03-10T09:44:01.071Z,2352.00
2023-03-10T09:45:01.009Z,2416.00
2023-03-10T09:46:01.023Z,2340.00
2023-03-10T09:47:01.010Z,2428.00
2023-03-10T09:48:02.515Z,2336.00
2023-03-10T09:49:00.965Z,2292.00
2023-03-10T09:50:00.958Z,2268.00
2023-03-10T09:51:00.951Z,2320.00
2023-03-10T09:52:00.938Z,2280.00
2023-03-10T09:53:00.922Z,2292.00
2023-03-10T09:54:00.915Z,2252.00
2023-03-10T09:55:00.901Z,2272.00
2023-03-10T09:56:00.889Z,2280.00
2023-03-10T09:57:00.876Z,2180.00
2023-03-10T09:58:02.545Z,2196.00
2023-03-10T09:59:00.854Z,2048.00
2023-03-10T10:00:00.868Z,1940.00
2023-03-10T10:01:00.837Z,1904.00
2023-03-10T10:02:00.833Z,1868.00
2023-03-10T10:03:00.862Z,1860.00
2023-03-10T10:04:00.970Z,1912.00
2023-03-10T10:05:03.620Z,1828.00
2023-03-10T10:06:00.783Z,1876.00
2023-03-10T10:07:00.773Z,1936.00
2023-03-10T10:08:00.801Z,1752.00
2023-03-10T10:09:05.311Z,1740.00
2023-03-10T10:10:00.753Z,1828.00
2023-03-10T10:11:00.724Z,1896.00
2023-03-10T10:12:00.712Z,2068.00
2023-03-10T10:13:00.708Z,2164.00
2023-03-10T10:14:01.768Z,2096.00
2023-03-10T10:15:00.681Z,2064.00
2023-03-10T10:16:18.327Z,2004.00
2023-03-10T10:17:01.780Z,2072.00
2023-03-10T10:18:12.047Z,2052.00
2023-03-10T10:19:00.725Z,2108.00
2023-03-10T10:20:00.633Z,2160.00
2023-03-10T10:21:00.617Z,2196.00
2023-03-10T10:22:00.600Z,2292.00
2023-03-10T10:23:00.597Z,2272.00
2023-03-10T10:24:00.678Z,2276.00
2023-03-10T10:25:00.564Z,2320.00
2023-03-10T10:26:02.539Z,2276.00
2023-03-10T10:27:00.548Z,2328.00
2023-03-10T10:28:00.550Z,2364.00
2023-03-10T10:29:00.559Z,2288.00
2023-03-10T10:30:00.519Z,2380.00
2023-03-10T10:31:00.540Z,2244.00
2023-03-10T10:32:00.513Z,2384.00
2023-03-10T10:33:00.481Z,2428.00
2023-03-10T10:34:00.493Z,2556.00
2023-03-10T10:35:00.457Z,2512.00
2023-03-10T10:36:00.547Z,2620.00
2023-03-10T10:37:00.432Z,2768.00
2023-03-10T10:38:00.423Z,2744.00
2023-03-10T10:39:00.414Z,3032.00
2023-03-10T10:40:00.414Z,3080.00
2023-03-10T10:41:00.395Z,3112.00
2023-03-10T10:42:00.382Z,3196.00
2023-03-10T10:43:00.377Z,3336.00
2023-03-10T10:44:00.370Z,3332.00
2023-03-10T10:45:00.348Z,3528.00
2023-03-10T10:46:00.363Z,3600.00
2023-03-10T10:47:00.337Z,3484.00
2023-03-10T10:48:00.343Z,3684.00
2023-03-10T10:49:00.762Z,3720.00
2023-03-10T10:50:00.291Z,3596.00
2023-03-10T10:51:01.072Z,3596.00
2023-03-10T10:52:00.269Z,3436.00
2023-03-10T10:53:00.266Z,3168.00
2023-03-10T10:54:00.248Z,3212.00
2023-03-10T10:55:00.238Z,3288.00
2023-03-10T10:56:00.229Z,3280.00
2023-03-10T10:57:00.221Z,3132.00
2023-03-10T10:58:01.709Z,2960.00
2023-03-10T10:59:00.199Z,3036.00
2023-03-10T11:00:00.190Z,3020.00
2023-03-10T11:01:00.220Z,3100.00
2023-03-10T11:02:00.174Z,3076.00
2023-03-10T11:03:00.156Z,3108.00
2023-03-10T11:04:00.217Z,3208.00
2023-03-10T11:05:00.159Z,3248.00
2023-03-10T11:06:00.169Z,3184.00
2023-03-10T11:07:00.196Z,3208.00
2023-03-10T11:08:00.218Z,3180.00
2023-03-10T11:09:00.208Z,3284.00
2023-03-10T11:10:00.232Z,3408.00
2023-03-10T11:11:00.221Z,3536.00
2023-03-10T11:12:00.212Z,3560.00
2023-03-10T11:13:00.080Z,3736.00
2023-03-10T11:14:00.035Z,3912.00
2023-03-10T11:15:00.026Z,3824.00
2023-03-10T11:16:00.095Z,3980.00
2023-03-10T11:17:00.006Z,3668.00
2023-03-10T11:17:59.989Z,3752.00
2023-03-10T11:18:59.979Z,3656.00
2023-03-10T11:19:59.993Z,3608.00
2023-03-10T11:20:59.969Z,3756.00
2023-03-10T11:21:59.959Z,3504.00
2023-03-10T11:22:59.938Z,3472.00
2023-03-10T11:23:59.936Z,3380.00
2023-03-10T11:24:59.916Z,3408.00
2023-03-10T11:25:59.903Z,3608.00
2023-03-10T11:26:59.900Z,3616.00
2023-03-10T11:27:59.880Z,3680.00
2023-03-10T11:28:59.944Z,3720.00
2023-03-10T11:29:59.856Z,3808.00
2023-03-10T11:30:59.932Z,4216.00
2023-03-10T11:31:59.890Z,4324.00
2023-03-10T11:32:59.827Z,4276.00
2023-03-10T11:33:59.827Z,4576.00
2023-03-10T11:34:59.809Z,4148.00
2023-03-10T11:36:01.153Z,4416.00
2023-03-10T11:36:59.782Z,4592.00
2023-03-10T11:37:59.776Z,4700.00
2023-03-10T11:38:59.767Z,5044.00
2023-03-10T11:39:59.750Z,5756.00
2023-03-10T11:40:59.743Z,5892.00
2023-03-10T11:41:59.794Z,6588.00
2023-03-10T11:42:59.721Z,6808.00
2023-03-10T11:43:59.710Z,7648.00
2023-03-10T11:44:59.699Z,7448.00
2023-03-10T11:45:59.827Z,8640.00
2023-03-10T11:46:59.679Z,8424.00
2023-03-10T11:47:59.691Z,8676.00
2023-03-10T11:48:59.658Z,9188.00
2023-03-10T11:49:59.640Z,9180.00
2023-03-10T11:50:59.636Z,8412.00
2023-03-10T11:51:59.647Z,8236.00
2023-03-10T11:52:59.612Z,8160.00
2023-03-10T11:53:59.607Z,8344.00
2023-03-10T11:54:59.592Z,8712.00
2023-03-10T11:55:59.606Z,9464.00
2023-03-10T11:56:59.569Z,9584.00
2023-03-10T11:57:59.556Z,10720.00
2023-03-10T11:58:59.547Z,10508.00
2023-03-10T11:59:59.555Z,11596.00
2023-03-10T12:00:59.528Z,12396.00
2023-03-10T12:01:59.519Z,11932.00
2023-03-10T12:02:59.509Z,12132.00
2023-03-10T12:03:59.614Z,12560.00
2023-03-10T12:04:59.583Z,12576.00
2023-03-10T12:05:59.472Z,12304.00
2023-03-10T12:06:59.461Z,12472.00
2023-03-10T12:07:59.473Z,12696.00
2023-03-10T12:08:59.439Z,13024.00
2023-03-10T12:09:59.427Z,13592.00
2023-03-10T12:10:59.415Z,13436.00
2023-03-10T12:11:59.403Z,13800.00
2023-03-10T12:12:59.390Z,12748.00
2023-03-10T12:13:59.388Z,12452.00
2023-03-10T12:14:59.369Z,12752.00
2023-03-10T12:15:59.403Z,12552.00
2023-03-10T12:16:59.346Z,12836.00
2023-03-10T12:17:59.331Z,12132.00
2023-03-10T12:18:59.326Z,11664.00
2023-03-10T12:19:59.311Z,10628.00
2023-03-10T12:20:59.300Z,11212.00
2023-03-10T12:21:59.287Z,11688.00
2023-03-10T12:22:59.282Z,12456.00
2023-03-10T12:23:59.323Z,13160.00
2023-03-10T12:24:59.256Z,13148.00
2023-03-10T12:25:59.249Z,14460.00
2023-03-10T12:26:59.232Z,16004.00
2023-03-10T12:27:59.218Z,15944.00
2023-03-10T12:28:59.210Z,15824.00
2023-03-10T12:29:59.196Z,17312.00
2023-03-10T12:30:59.319Z,16832.00
2023-03-10T12:31:59.401Z,17152.00
2023-03-10T12:32:59.235Z,16384.00
2023-03-10T12:33:59.303Z,16444.00
2023-03-10T12:34:59.142Z,14928.00
2023-03-10T12:35:59.170Z,15092.00
2023-03-10T12:36:59.119Z,15372.00
2023-03-10T12:37:59.104Z,14092.00
2023-03-10T12:38:59.095Z,14220.00
2023-03-10T12:39:59.139Z,13592.00
2023-03-10T12:40:59.080Z,12732.00
2023-03-10T12:41:59.060Z,12196.00